Time;durP1;ratioP1;P1;durP2;ratioP2;P2;SDS_P1;SDS_P2;PMS_P1;PMS_P2;Temp;Humidity;BMP_temperature;BMP_pressure;BME280_temperature;BME280_humidity;BME280_pressure;Samples;Min_cycle;Max_cycle;Signal;HPM_P1;HPM_P2
2022/06/25 00:00:12;;;;;;;4.93;2.67;;;;;;;18.56;74.71;100243.56;4113634;28;20074;-66
2022/06/25 00:02:15;;;;;;;;;;;;;;;18.38;75.83;100238.69;4130185;28;20046;-66
2022/06/25 00:06:39;;;;;;;4.53;2.00;;;;;;;18.53;75.21;100256.81;4131526;28;20122;-66
2022/06/25 00:08:42;;;;;;;5.03;1.80;;;;;;;18.54;75.51;100241.88;4119367;28;20130;-66
2022/06/25 00:10:46;;;;;;;6.43;2.08;;;;;;;18.52;75.33;100241.03;4124648;28;20034;-66
2022/06/25 00:12:48;;;;;;;3.72;2.20;;;;;;;18.50;75.62;100246.34;4130665;28;20046;-66
2022/06/25 00:14:51;;;;;;;4.20;2.00;;;;;;;18.52;76.01;100247.16;4131138;28;20045;-66
2022/06/25 00:16:54;;;;;;;5.45;2.35;;;;;;;18.55;75.41;100251.50;4132301;28;20038;-66
2022/06/25 00:18:57;;;;;;;5.38;1.98;;;;;;;18.63;74.74;100246.91;4131799;28;20043;-67
2022/06/25 00:21:00;;;;;;;5.55;2.08;;;;;;;18.59;75.47;100247.91;4130672;28;20046;-67
2022/06/25 00:23:03;;;;;;;2.72;1.60;;;;;;;18.51;75.40;100249.84;4130858;28;20049;-69
2022/06/25 00:25:06;;;;;;;4.78;2.30;;;;;;;18.52;75.34;100247.16;4131834;28;20501;-68
2022/06/25 00:27:10;;;;;;;3.72;2.45;;;;;;;18.56;75.62;100258.47;4098633;28;20047;-70
2022/06/25 00:29:14;;;;;;;4.25;2.47;;;;;;;18.60;75.09;100254.88;4131216;28;20034;-68
2022/06/25 00:31:17;;;;;;;5.93;2.30;;;;;;;18.57;74.92;100260.22;4127970;28;20069;-70
2022/06/25 00:33:20;;;;;;;3.70;2.25;;;;;;;18.56;74.75;100269.00;4130594;28;20289;-67
2022/06/25 00:35:24;;;;;;;3.83;2.28;;;;;;;18.51;74.87;100260.34;4113802;28;20049;-67
2022/06/25 00:37:29;;;;;;;2.95;2.00;;;;;;;18.53;74.84;100263.81;4114312;28;20049;-68
2022/06/25 00:39:32;;;;;;;5.35;2.55;;;;;;;18.44;75.23;100267.50;4130380;28;20049;-68
2022/06/25 00:41:35;;;;;;;6.15;2.50;;;;;;;18.42;75.38;100270.19;4110564;28;20083;-68
2022/06/25 00:43:40;;;;;;;6.10;2.65;;;;;;;18.41;75.63;100268.47;4120990;28;20038;-67
2022/06/25 00:45:43;;;;;;;8.68;2.90;;;;;;;18.40;75.77;100264.09;4110954;28;20050;-68
2022/06/25 00:47:46;;;;;;;2.60;2.35;;;;;;;18.37;76.12;100273.81;4123157;28;20053;-68
2022/06/25 00:49:49;;;;;;;4.68;2.53;;;;;;;18.37;76.33;100273.81;4113327;28;20039;-68
2022/06/25 00:51:53;;;;;;;6.75;2.30;;;;;;;18.37;75.86;100261.53;4130268;28;21262;-68
2022/06/25 00:53:59;;;;;;;5.93;2.58;;;;;;;18.36;76.18;100261.56;4146566;28;20406;-68
2022/06/25 00:56:05;;;;;;;6.43;2.42;;;;;;;18.31;75.77;100265.16;4113843;28;20142;-68
2022/06/25 00:58:11;;;;;;;2.85;1.98;;;;;;;18.31;76.13;100259.88;4130784;28;20035;-66
2022/06/25 01:00:17;;;;;;;3.88;2.47;;;;;;;18.32;76.28;100266.00;4115097;28;20035;-67
2022/06/25 01:02:22;;;;;;;3.97;2.28;;;;;;;18.35;75.86;100265.94;4118754;28;20529;-66
2022/06/25 01:04:25;;;;;;;4.10;2.50;;;;;;;18.39;75.67;100266.75;4130954;28;20034;-66
2022/06/25 01:06:28;;;;;;;4.78;2.85;;;;;;;18.46;75.10;100266.59;4116118;28;20058;-66
2022/06/25 01:08:32;;;;;;;6.13;2.60;;;;;;;18.29;75.80;100276.59;4115574;28;20042;-66
2022/06/25 01:10:35;;;;;;;6.47;3.08;;;;;;;18.36;75.45;100275.56;4116723;28;20521;-68
2022/06/25 01:12:38;;;;;;;5.22;2.47;;;;;;;18.35;75.78;100276.47;4114200;28;20048;-69
2022/06/25 01:14:41;;;;;;;5.00;2.30;;;;;;;18.37;75.72;100279.94;4116861;28;20034;-66
2022/06/25 01:16:46;;;;;;;8.13;2.97;;;;;;;18.38;75.63;100278.19;4125990;28;20065;-68
2022/06/25 01:18:49;;;;;;;8.68;3.30;;;;;;;18.39;75.12;100283.41;4145848;28;20045;-69
2022/06/25 01:20:54;;;;;;;7.78;2.85;;;;;;;18.34;75.59;100282.66;4116556;28;20067;-66
2022/06/25 01:22:59;;;;;;;6.57;2.70;;;;;;;18.34;75.66;100277.38;4126729;28;20114;-68
2022/06/25 01:25:03;;;;;;;3.72;2.40;;;;;;;18.31;75.59;100282.69;4141726;28;20394;-68
2022/06/25 01:27:13;;;;;;;3.95;2.40;;;;;;;18.29;75.97;100281.88;4145019;28;20480;-66
2022/06/25 01:29:15;;;;;;;4.47;2.50;;;;;;;18.27;75.93;100279.28;4121821;28;20070;-66
2022/06/25 01:31:18;;;;;;;6.32;3.13;;;;;;;18.29;75.87;100287.13;4130659;28;20052;-66
2022/06/25 01:33:21;;;;;;;7.20;2.80;;;;;;;18.33;75.54;100287.94;4121767;28;20046;-66
2022/06/25 01:35:24;;;;;;;5.20;3.00;;;;;;;18.35;74.89;100286.13;4130958;28;20056;-66
2022/06/25 01:37:28;;;;;;;4.40;2.78;;;;;;;18.30;75.08;100280.97;4135214;28;20065;-66
2022/06/25 01:39:33;;;;;;;4.38;3.17;;;;;;;18.23;75.50;100289.88;4136429;28;20587;-66
2022/06/25 01:41:36;;;;;;;6.20;3.50;;;;;;;18.20;75.50;100287.31;4120648;28;20066;-66
2022/06/25 01:43:39;;;;;;;4.82;3.33;;;;;;;18.23;75.35;100288.13;4101848;28;20426;-66
2022/06/25 01:45:42;;;;;;;7.10;3.35;;;;;;;18.22;75.42;100280.25;4131166;28;20030;-67
2022/06/25 01:47:45;;;;;;;9.15;3.47;;;;;;;18.19;75.58;100290.84;4113301;28;20114;-66
2022/06/25 01:50:09;;;;;;;7.75;3.67;;;;;;;18.20;75.09;100285.56;4116280;28;20115;-67
2022/06/25 01:52:13;;;;;;;6.03;3.60;;;;;;;18.18;75.31;100289.09;4112988;28;20041;-66
2022/06/25 01:54:17;;;;;;;9.50;4.07;;;;;;;18.16;75.33;100285.66;4121281;28;20057;-67
2022/06/25 01:56:22;;;;;;;8.73;3.67;;;;;;;18.14;75.25;100294.44;4128678;28;20042;-66
2022/06/25 01:58:25;;;;;;;8.32;3.72;;;;;;;18.16;75.46;100296.16;4102192;28;20063;-66
2022/06/25 02:00:31;;;;;;;7.40;4.00;;;;;;;18.19;75.14;100296.97;4144481;28;20058;-66
2022/06/25 02:02:41;;;;;;;4.88;3.40;;;;;;;18.14;75.42;100298.84;4116993;28;20085;-66
2022/06/25 02:04:45;;;;;;;8.23;3.78;;;;;;;18.13;75.53;100304.97;4129609;28;20038;-66
2022/06/25 02:06:48;;;;;;;3.22;2.80;;;;;;;18.11;75.58;100299.75;4124387;28;20042;-67
2022/06/25 02:08:51;;;;;;;7.10;3.67;;;;;;;18.14;75.57;100302.31;4131968;28;20121;-67
2022/06/25 02:10:54;;;;;;;7.68;3.25;;;;;;;18.11;75.67;100299.75;4146166;28;20058;-66
2022/06/25 02:12:59;;;;;;;7.55;3.63;;;;;;;18.10;75.79;100295.38;4101218;28;20133;-67
2022/06/25 02:15:02;;;;;;;6.88;4.07;;;;;;;18.08;75.71;100296.34;4140750;28;20106;-67
2022/06/25 02:17:06;;;;;;;4.47;3.97;;;;;;;18.12;75.66;100295.34;4115753;28;20059;-67
2022/06/25 02:19:09;;;;;;;7.38;4.00;;;;;;;18.09;75.61;100296.31;4120681;28;20886;-67
2022/06/25 02:21:13;;;;;;;7.18;3.67;;;;;;;18.09;75.89;100292.78;4115862;28;20049;-67
2022/06/25 02:23:19;;;;;;;5.38;3.70;;;;;;;18.08;75.85;100297.19;4129636;28;20047;-67
2022/06/25 02:25:22;;;;;;;9.27;4.18;;;;;;;18.10;76.02;100297.16;4131537;28;20077;-66
2022/06/25 02:27:25;;;;;;;6.03;4.07;;;;;;;18.07;76.18;100298.06;4132904;28;20039;-66
2022/06/25 02:29:29;;;;;;;6.82;4.22;;;;;;;18.10;75.90;100307.69;4133443;28;20050;-66
2022/06/25 02:31:32;;;;;;;8.68;5.05;;;;;;;18.10;75.72;100305.91;4130492;28;20093;-66
2022/06/25 02:33:35;;;;;;;6.32;4.10;;;;;;;18.08;76.22;100309.47;4115766;28;20066;-66
2022/06/25 02:35:41;;;;;;;6.15;3.88;;;;;;;18.06;76.47;100312.16;4130266;28;20042;-66
2022/06/25 02:37:44;;;;;;;7.40;5.22;;;;;;;18.02;76.69;100310.47;4140149;28;20088;-66
2022/06/25 02:39:49;;;;;;;9.52;4.97;;;;;;;18.02;76.83;100310.47;4122141;28;20035;-66
2022/06/25 02:41:52;;;;;;;8.35;5.35;;;;;;;18.05;76.59;100310.41;4117871;28;20532;-66
2022/06/25 02:43:58;;;;;;;6.90;4.95;;;;;;;18.08;76.20;100304.22;4115980;28;20057;-66
2022/06/25 02:46:18;;;;;;;8.10;5.80;;;;;;;18.08;76.33;100304.22;4115217;28;20039;-67
2022/06/25 02:48:27;;;;;;;9.15;5.60;;;;;;;18.05;76.13;100299.88;4117506;28;20039;-67
2022/06/25 02:50:31;;;;;;;7.63;5.00;;;;;;;18.06;75.88;100306.88;4135023;28;20546;-67
2022/06/25 02:52:34;;;;;;;6.03;5.20;;;;;;;18.05;76.39;100305.16;4132408;28;20038;-67
2022/06/25 02:54:37;;;;;;;7.50;5.72;;;;;;;18.06;76.36;100301.63;4118346;28;20038;-67
2022/06/25 02:59:01;;;;;;;8.27;5.00;;;;;;;17.99;76.12;100300.00;4101004;28;20044;-67
2022/06/25 03:01:28;;;;;;;7.70;5.53;;;;;;;18.02;76.26;100309.56;4115312;28;20455;-67
2022/06/25 03:03:31;;;;;;;8.55;5.43;;;;;;;17.98;76.31;100311.41;4117459;28;20047;-68
2022/06/25 03:05:34;;;;;;;8.60;4.68;;;;;;;17.99;76.31;100309.63;4126414;28;20066;-68
2022/06/25 03:07:39;;;;;;;6.68;4.65;;;;;;;18.01;76.39;100315.75;4123854;28;20047;-68
2022/06/25 03:09:41;;;;;;;7.60;5.15;;;;;;;18.05;76.14;100306.91;4132308;28;20042;-68
2022/06/25 03:11:45;;;;;;;10.02;5.43;;;;;;;18.05;76.42;100315.66;4118813;28;20038;-66
2022/06/25 03:13:48;;;;;;;8.85;7.22;;;;;;;18.04;76.37;100313.91;4121617;28;20042;-66
2022/06/25 03:15:51;;;;;;;5.55;4.95;;;;;;;18.04;76.26;100319.19;4118575;28;20043;-66
2022/06/25 03:17:56;;;;;;;8.38;6.22;;;;;;;17.99;76.57;100318.41;4144529;28;20030;-67
2022/06/25 03:20:18;;;;;;;6.05;4.80;;;;;;;17.89;77.04;100319.44;4131989;28;20125;-66
2022/06/25 03:22:26;;;;;;;8.63;5.65;;;;;;;17.90;76.68;100322.09;4126873;28;20046;-66
2022/06/25 03:24:29;;;;;;;8.68;6.43;;;;;;;17.93;76.67;100316.75;4143756;28;20053;-67
2022/06/25 03:26:32;;;;;;;11.27;6.97;;;;;;;17.97;76.38;100320.19;4120913;28;20046;-67
2022/06/25 03:28:36;;;;;;;9.55;6.40;;;;;;;18.00;76.00;100314.88;4123345;28;20050;-67
2022/06/25 03:30:40;;;;;;;12.40;6.95;;;;;;;17.98;75.98;100308.78;4117369;28;20129;-68
2022/06/25 03:32:45;;;;;;;;;;;;;;;17.87;76.29;100318.59;4128237;28;20537;-68
2022/06/25 03:35:00;;;;;;;7.72;5.55;;;;;;;17.91;76.44;100326.44;4145470;28;20491;-68
2022/06/25 03:37:05;;;;;;;11.82;5.20;;;;;;;17.94;76.37;100323.75;4130102;28;20560;-69
2022/06/25 03:39:08;;;;;;;11.10;6.63;;;;;;;17.97;76.21;100333.34;4114070;28;20050;-70
2022/06/25 03:43:40;;;;;;;11.18;7.07;;;;;;;17.93;76.31;100332.53;4117890;28;20453;-68
2022/06/25 03:45:42;;;;;;;11.82;6.78;;;;;;;17.94;76.20;100334.25;4107829;28;20070;-68
2022/06/25 03:47:50;;;;;;;9.20;6.28;;;;;;;17.96;76.09;100336.88;4145117;28;20096;-67
2022/06/25 03:49:55;;;;;;;12.43;6.13;;;;;;;17.96;76.16;100342.16;4117295;28;20484;-68
2022/06/25 03:52:01;;;;;;;8.07;6.60;;;;;;;17.99;76.34;100339.47;4114278;28;20073;-68
2022/06/25 03:54:04;;;;;;;;;;;;;;;17.80;76.58;100339.75;4098137;28;20126;-67
2022/06/25 03:56:08;;;;;;;9.20;6.10;;;;;;;17.87;76.85;100337.00;4118095;28;19921;-68
2022/06/25 03:58:16;;;;;;;7.88;5.80;;;;;;;17.91;76.60;100338.72;4114600;28;20090;-67
2022/06/25 04:00:19;;;;;;;11.27;6.57;;;;;;;17.93;77.03;100343.06;4130848;28;20485;-67
2022/06/25 04:02:29;;;;;;;10.50;6.30;;;;;;;18.00;76.73;100342.94;4122287;28;20133;-67
2022/06/25 04:04:52;;;;;;;11.68;6.60;;;;;;;17.99;76.69;100344.72;4130926;28;20449;-67
2022/06/25 04:06:55;;;;;;;10.48;5.97;;;;;;;18.01;76.50;100337.66;4118668;28;20109;-67
2022/06/25 04:09:00;;;;;;;11.13;7.22;;;;;;;18.03;76.76;100348.16;4122076;28;20651;-67
2022/06/25 04:11:06;;;;;;;7.68;6.20;;;;;;;18.02;76.56;100349.94;4144230;28;20513;-67
2022/06/25 04:13:12;;;;;;;8.23;6.20;;;;;;;18.04;76.80;100345.50;4144501;28;20136;-67
2022/06/25 04:15:15;;;;;;;13.13;5.75;;;;;;;18.09;76.94;100345.41;4146299;28;20471;-67
2022/06/25 04:17:19;;;;;;;9.13;5.68;;;;;;;18.08;76.70;100347.16;4123915;28;20122;-67
2022/06/25 04:19:23;;;;;;;7.10;5.32;;;;;;;18.11;77.06;100347.13;4145859;28;20046;-68
2022/06/25 04:21:27;;;;;;;7.80;6.03;;;;;;;18.12;77.32;100354.13;4137512;28;20516;-68
2022/06/25 04:23:30;;;;;;;6.82;5.45;;;;;;;18.16;77.04;100351.44;4129322;28;20125;-68
2022/06/25 04:25:34;;;;;;;7.07;5.00;;;;;;;18.19;76.61;100351.38;4145596;28;20509;-68
2022/06/25 04:29:59;;;;;;;5.70;4.00;;;;;;;18.88;76.86;100354.38;4082134;28;20066;-60
2022/06/25 04:32:02;;;;;;;3.90;2.92;;;;;;;19.13;75.72;100345.03;4108581;28;20109;-60
2022/06/25 04:34:24;;;;;;;7.18;3.78;;;;;;;19.35;74.90;100350.66;4133210;28;20054;-60
2022/06/25 04:36:28;;;;;;;5.85;4.18;;;;;;;19.46;73.35;100346.91;4140923;28;20073;-60
2022/06/25 04:38:38;;;;;;;7.78;3.80;;;;;;;19.40;73.16;100360.25;4115471;28;20031;-61
2022/06/25 04:40:42;;;;;;;9.00;4.35;;;;;;;19.41;72.57;100357.56;4119572;28;20050;-61
2022/06/25 04:42:45;;;;;;;9.60;4.05;;;;;;;19.51;73.24;100361.72;4141153;28;20136;-60
2022/06/25 04:44:48;;;;;;;8.00;3.40;;;;;;;19.60;72.60;100359.75;4143427;28;20400;-60
2022/06/25 04:46:51;;;;;;;6.80;3.78;;;;;;;19.63;71.82;100359.69;4135266;28;20596;-60
2022/06/25 04:49:04;;;;;;;6.18;3.88;;;;;;;19.68;71.65;100349.88;4119620;28;20047;-60
2022/06/25 04:51:20;;;;;;;6.85;3.33;;;;;;;19.75;71.90;100353.22;4125572;28;20039;-61
2022/06/25 04:53:24;;;;;;;8.45;3.15;;;;;;;19.85;71.47;100366.16;4116667;28;20049;-60
2022/06/25 04:55:27;;;;;;;6.35;2.80;;;;;;;19.94;71.30;100366.84;4113544;28;20066;-61
2022/06/25 04:57:31;;;;;;;7.82;3.72;;;;;;;19.99;71.05;100365.81;4112866;28;20055;-60
2022/06/25 04:59:58;;;;;;;8.52;3.50;;;;;;;19.99;70.85;100368.47;4117779;28;20046;-60
2022/06/25 05:02:10;;;;;;;7.72;3.10;;;;;;;20.09;70.45;100366.41;4117117;28;20038;-60
2022/06/25 05:04:40;;;;;;;6.85;3.20;;;;;;;20.08;70.19;100374.38;4120961;28;20056;-60
2022/06/25 05:06:44;;;;;;;6.68;4.55;;;;;;;20.09;69.82;100374.34;4116474;28;20046;-61
2022/06/25 05:08:47;;;;;;;4.55;2.60;;;;;;;20.00;70.31;100371.94;4138107;28;20038;-61
2022/06/25 05:10:52;;;;;;;5.03;2.90;;;;;;;20.09;70.25;100378.75;4134574;28;20044;-61
2022/06/25 05:13:14;;;;;;;4.25;3.08;;;;;;;20.10;69.81;100369.94;4137394;28;20332;-61
2022/06/25 05:15:21;;;;;;;4.80;2.63;;;;;;;20.11;70.16;100377.81;4102784;28;20054;-60
2022/06/25 05:17:24;;;;;;;10.02;2.80;;;;;;;20.21;69.67;100376.66;4140719;28;20543;-70
2022/06/25 05:19:27;;;;;;;7.53;3.17;;;;;;;20.19;69.55;100381.13;4139665;28;20466;-68
2022/06/25 05:21:30;;;;;;;7.55;3.60;;;;;;;20.11;70.03;100384.88;4143856;28;20040;-69
2022/06/25 05:23:36;;;;;;;5.15;2.88;;;;;;;19.99;70.11;100379.00;4101937;28;20055;-66
2022/06/25 05:25:40;;;;;;;7.30;3.00;;;;;;;19.93;70.50;100388.84;4146360;28;20196;-68
2022/06/25 05:27:43;;;;;;;6.18;3.03;;;;;;;19.86;70.60;100380.25;4129184;28;20056;-67
2022/06/25 05:29:48;;;;;;;4.60;2.80;;;;;;;19.88;70.95;100387.19;4122269;28;20370;-67
2022/06/25 05:31:54;;;;;;;7.35;2.83;;;;;;;19.84;70.75;100390.84;4119265;28;20094;-67
2022/06/25 05:33:57;;;;;;;4.47;2.17;;;;;;;19.84;71.12;100393.47;4095725;28;20051;-66
2022/06/25 05:36:00;;;;;;;3.65;2.28;;;;;;;19.86;71.08;100391.66;4117382;28;20104;-66
2022/06/25 05:38:03;;;;;;;4.65;2.40;;;;;;;19.90;70.83;100396.84;4120175;28;20060;-66
2022/06/25 05:40:09;;;;;;;5.30;2.87;;;;;;;19.85;70.93;100395.19;4128186;28;20084;-67
2022/06/25 05:42:12;;;;;;;5.88;2.28;;;;;;;19.73;71.21;100398.09;4135015;28;20292;-67
2022/06/25 05:44:15;;;;;;;3.83;2.55;;;;;;;19.78;71.36;100400.63;4108123;28;20051;-69
2022/06/25 05:46:19;;;;;;;4.32;2.45;;;;;;;19.74;71.71;100398.97;4121300;28;20038;-69
2022/06/25 05:48:22;;;;;;;4.22;2.47;;;;;;;19.82;71.34;100397.03;4124009;28;20041;-67
2022/06/25 05:50:26;;;;;;;6.25;2.95;;;;;;;19.93;71.06;100394.13;4137545;28;20132;-67
2022/06/25 05:52:30;;;;;;;4.00;2.10;;;;;;;19.93;71.44;100405.56;4124004;28;20035;-70
2022/06/25 05:54:33;;;;;;;7.20;2.50;;;;;;;20.02;71.23;100402.69;4137357;28;20052;-67
2022/06/25 05:56:37;;;;;;;3.17;1.93;;;;;;;20.08;70.54;100398.13;4121941;28;20037;-66
2022/06/25 05:58:40;;;;;;;3.80;2.17;;;;;;;20.18;70.35;100408.44;4125571;28;20129;-67
2022/06/25 06:00:43;;;;;;;3.40;1.70;;;;;;;20.17;70.52;100403.19;4122998;28;20569;-68
2022/06/25 06:02:48;;;;;;;6.35;1.90;;;;;;;20.24;70.50;100399.47;4124655;28;20045;-67
2022/06/25 06:04:51;;;;;;;;;;;;;;;20.20;70.76;100411.88;4125218;28;20409;-68
2022/06/25 06:06:54;;;;;;;6.22;2.10;;;;;;;20.33;70.92;100415.06;4123465;28;19925;-74
2022/06/25 06:08:57;;;;;;;2.47;1.58;;;;;;;20.34;70.66;100415.91;4128370;28;20584;-67
2022/06/25 06:11:00;;;;;;;2.75;1.92;;;;;;;20.27;70.18;100409.06;4123682;28;20121;-67
2022/06/25 06:13:03;;;;;;;5.10;1.95;;;;;;;20.39;70.58;100414.88;4127890;28;20141;-67
2022/06/25 06:15:07;;;;;;;2.20;2.00;;;;;;;20.47;70.28;100409.41;4132738;28;20474;-67
2022/06/25 06:17:10;;;;;;;4.63;1.85;;;;;;;20.50;70.28;100414.63;4120682;28;20038;-68
2022/06/25 06:19:15;;;;;;;4.78;1.63;;;;;;;20.51;69.92;100413.69;4124920;28;20513;-66
2022/06/25 06:21:18;;;;;;;3.45;1.92;;;;;;;20.62;69.90;100417.78;4110662;28;20058;-66
2022/06/25 06:23:20;;;;;;;3.60;1.63;;;;;;;20.66;69.98;100416.81;4129267;28;20077;-66
2022/06/25 06:25:23;;;;;;;3.35;1.85;;;;;;;20.77;69.87;100417.41;4126945;28;20045;-66
2022/06/25 06:27:26;;;;;;;4.47;2.28;;;;;;;20.88;68.58;100412.69;4132022;28;20038;-65
2022/06/25 06:29:29;;;;;;;1.83;1.48;;;;;;;20.81;69.25;100423.44;4128249;28;20507;-72
2022/06/25 06:31:32;;;;;;;4.03;1.70;;;;;;;20.77;69.17;100422.69;4114016;28;20035;-67
2022/06/25 06:33:35;;;;;;;5.47;1.45;;;;;;;20.73;69.36;100415.75;4125862;28;20054;-64
2022/06/25 06:35:40;;;;;;;2.75;1.42;;;;;;;20.74;68.94;100418.34;4127664;28;20050;-65
2022/06/25 06:37:43;;;;;;;4.13;1.50;;;;;;;20.69;69.05;100419.38;4141258;28;20053;-63
2022/06/25 06:39:46;;;;;;;2.35;1.60;;;;;;;20.73;68.78;100414.00;4117714;28;20046;-64
2022/06/25 06:41:48;;;;;;;3.40;1.67;;;;;;;20.79;68.32;100417.34;4135499;28;20038;-65
2022/06/25 06:43:51;;;;;;;2.33;1.55;;;;;;;20.82;68.25;100423.44;4117694;28;20130;-65
2022/06/25 06:45:54;;;;;;;2.33;1.25;;;;;;;20.82;68.18;100431.38;4130255;28;20062;-65
2022/06/25 06:47:58;;;;;;;1.55;1.40;;;;;;;20.86;68.34;100421.56;4129322;28;20096;-67
2022/06/25 06:50:01;;;;;;;4.13;1.60;;;;;;;20.85;68.72;100422.47;4120471;28;20115;-65
2022/06/25 06:52:10;;;;;;;2.72;1.42;;;;;;;20.86;68.97;100413.63;4108829;28;20058;-66
2022/06/25 06:54:14;;;;;;;6.53;1.70;;;;;;;20.96;68.23;100424.81;4139963;28;20046;-63
2022/06/25 06:56:17;;;;;;;1.75;1.27;;;;;;;21.04;68.10;100425.44;4127014;28;20047;-63
2022/06/25 06:58:20;;;;;;;2.53;1.40;;;;;;;21.14;67.50;100424.25;4115169;28;20050;-66
2022/06/25 07:00:23;;;;;;;1.80;1.23;;;;;;;21.26;67.27;100413.31;4110700;28;20842;-65
2022/06/25 07:02:26;;;;;;;3.30;1.55;;;;;;;21.37;67.18;100412.09;4121615;28;20042;-66
2022/06/25 07:04:29;;;;;;;6.50;1.40;;;;;;;21.49;67.34;100418.78;4118071;28;20506;-65
2022/06/25 07:06:32;;;;;;;4.13;1.35;;;;;;;21.32;66.51;100416.66;4118555;28;20081;-64
2022/06/25 07:08:36;;;;;;;2.72;1.50;;;;;;;21.17;66.96;100423.28;4122733;28;20042;-66
2022/06/25 07:10:39;;;;;;;2.10;1.55;;;;;;;21.04;66.15;100425.44;4119679;28;20596;-63
2022/06/25 07:12:42;;;;;;;4.25;1.80;;;;;;;21.02;66.80;100427.25;4126819;28;20066;-64
2022/06/25 07:14:45;;;;;;;5.00;1.67;;;;;;;21.11;66.72;100429.63;4128253;28;20046;-64
2022/06/25 07:16:49;;;;;;;8.95;1.73;;;;;;;21.30;65.80;100421.13;4132796;28;20535;-64
2022/06/25 07:18:53;;;;;;;2.17;1.45;;;;;;;21.36;65.54;100424.47;4147651;28;20068;-65
2022/06/25 07:20:56;;;;;;;6.93;1.30;;;;;;;21.30;66.54;100423.78;4131995;28;20038;-65
2022/06/25 07:22:59;;;;;;;2.55;1.40;;;;;;;21.39;67.10;100431.41;4131177;28;20034;-64
2022/06/25 07:25:03;;;;;;;4.00;1.50;;;;;;;21.40;65.97;100427.88;4128333;28;20074;-64
2022/06/25 07:27:06;;;;;;;2.67;1.45;;;;;;;21.44;64.54;100414.50;4130218;28;20050;-64
2022/06/25 07:29:09;;;;;;;5.10;1.48;;;;;;;;;;4131476;28;20042;-64
2022/06/25 07:31:12;;;;;;;2.55;1.40;;;;;;;21.48;64.85;100409.09;4131303;28;20050;-64
2022/06/25 07:33:15;;;;;;;2.55;1.48;;;;;;;21.46;65.87;100417.09;4123050;28;20043;-65
2022/06/25 07:35:18;;;;;;;3.03;1.50;;;;;;;21.45;66.08;100415.38;4110623;28;20044;-64
2022/06/25 07:37:21;;;;;;;2.03;1.25;;;;;;;21.37;64.75;100418.25;4131201;28;20125;-64
2022/06/25 07:39:24;;;;;;;2.20;1.40;;;;;;;21.35;65.25;100412.16;4129236;28;20042;-65
2022/06/25 07:41:28;;;;;;;5.18;1.70;;;;;;;21.41;65.29;100404.03;4122895;28;20050;-65
2022/06/25 07:43:31;;;;;;;1.88;1.27;;;;;;;21.56;65.43;100410.63;4142312;28;20038;-64
2022/06/25 07:45:34;;;;;;;2.20;1.25;;;;;;;21.73;64.72;100414.53;4130138;28;20038;-64
2022/06/25 07:47:43;;;;;;;1.40;1.30;;;;;;;21.83;64.70;100412.41;4129152;28;20089;-63
2022/06/25 07:52:07;;;;;;;4.18;1.50;;;;;;;22.12;62.82;100408.78;4130525;28;20035;-64
2022/06/25 07:54:10;;;;;;;3.53;1.80;;;;;;;22.26;62.39;100406.50;4128028;28;20116;-63
2022/06/25 07:56:13;;;;;;;4.95;1.60;;;;;;;22.21;61.93;100407.59;4112249;28;20061;-63
2022/06/25 07:58:17;;;;;;;2.42;1.40;;;;;;;22.25;62.53;100404.81;4129693;28;20050;-63
2022/06/25 08:00:20;;;;;;;4.50;1.83;;;;;;;22.42;63.01;100395.41;4136787;28;20066;-65
2022/06/25 08:02:23;;;;;;;2.75;2.08;;;;;;;22.44;61.89;100404.16;4131930;28;20045;-65
2022/06/25 08:04:26;;;;;;;4.63;1.90;;;;;;;22.36;62.38;100400.94;4145816;28;20069;-64
2022/06/25 08:06:30;;;;;;;5.03;1.88;;;;;;;22.27;62.36;100400.31;4130941;28;20050;-64
2022/06/25 08:08:34;;;;;;;4.47;1.80;;;;;;;22.33;63.14;100395.72;4147734;28;20066;-64
2022/06/25 08:10:37;;;;;;;2.60;1.50;;;;;;;22.30;62.51;100394.03;4134928;28;20129;-65
2022/06/25 08:12:40;;;;;;;3.22;1.75;;;;;;;22.38;62.38;100393.78;4103089;28;20465;-64
2022/06/25 08:14:44;;;;;;;7.50;2.30;;;;;;;22.48;62.67;100387.25;4129558;28;20037;-63
2022/06/25 08:16:48;;;;;;;4.75;1.60;;;;;;;22.39;63.00;100390.25;4107995;28;20035;-62
2022/06/25 08:18:51;;;;;;;5.50;2.17;;;;;;;22.23;62.86;100392.53;4140730;28;20130;-65
2022/06/25 08:20:54;;;;;;;1.77;1.33;;;;;;;22.31;62.67;100394.00;4113657;28;20651;-65
2022/06/25 08:22:56;;;;;;;4.20;1.70;;;;;;;22.20;62.95;100396.16;4135547;28;20452;-66
2022/06/25 08:24:59;;;;;;;3.30;1.48;;;;;;;22.18;62.13;100394.47;4133692;28;20065;-65
2022/06/25 08:27:02;;;;;;;3.80;1.60;;;;;;;22.18;62.37;100395.34;4131369;28;20069;-71
2022/06/25 08:29:05;;;;;;;2.75;1.50;;;;;;;22.29;62.30;100397.59;4128453;28;20121;-70
2022/06/25 08:31:10;;;;;;;1.27;1.15;;;;;;;22.45;63.08;100397.97;4138687;28;20046;-68
2022/06/25 08:33:14;;;;;;;5.45;2.05;;;;;;;22.42;60.69;100396.28;4113086;28;20513;-68
2022/06/25 08:35:18;;;;;;;4.95;1.50;;;;;;;22.52;61.82;100391.50;4131822;28;20076;-68
2022/06/25 08:37:27;;;;;;;6.15;1.42;;;;;;;22.55;61.06;100395.84;4121545;28;20137;-68
2022/06/25 08:39:30;;;;;;;3.95;1.60;;;;;;;22.65;60.67;100387.50;4131603;28;20046;-67
2022/06/25 08:41:33;;;;;;;5.07;1.40;;;;;;;22.72;61.19;100389.91;4126948;28;20464;-69
2022/06/25 08:43:37;;;;;;;4.13;1.40;;;;;;;22.78;59.79;100389.66;4146512;28;20042;-68
2022/06/25 08:45:40;;;;;;;1.87;1.40;;;;;;;22.67;60.71;100380.34;4115582;28;20039;-69
2022/06/25 08:47:46;;;;;;;4.00;2.00;;;;;;;22.66;60.12;100377.75;4130282;28;20044;-68
2022/06/25 08:49:55;;;;;;;1.98;1.40;;;;;;;22.69;60.63;100382.06;4133308;28;20521;-68
2022/06/25 08:52:01;;;;;;;3.50;1.80;;;;;;;22.76;58.35;100379.13;4131021;28;20034;-69
2022/06/25 08:54:07;;;;;;;5.20;1.80;;;;;;;23.00;55.97;100376.47;4131570;28;20046;-68
2022/06/25 08:56:10;;;;;;;4.93;1.77;;;;;;;23.01;53.63;100371.13;4131475;28;20437;-68
2022/06/25 08:58:14;;;;;;;6.68;1.77;;;;;;;22.90;55.08;100373.31;4131408;28;20046;-68
2022/06/25 09:00:17;;;;;;;2.88;1.30;;;;;;;22.70;57.19;100368.75;4114311;28;20046;-67
2022/06/25 09:02:26;;;;;;;5.03;1.73;;;;;;;22.77;57.19;100366.75;4136462;28;20536;-68
2022/06/25 09:04:31;;;;;;;8.00;1.42;;;;;;;22.96;57.76;100373.06;4131341;28;20493;-67
2022/06/25 09:06:34;;;;;;;4.05;1.75;;;;;;;23.22;57.13;100365.03;4114105;28;20057;-68
2022/06/25 09:08:37;;;;;;;2.63;1.65;;;;;;;23.19;57.54;100368.69;4114197;28;20050;-68
2022/06/25 09:10:42;;;;;;;3.47;1.70;;;;;;;23.16;59.41;100376.78;4131425;28;20104;-68
2022/06/25 09:12:50;;;;;;;2.58;1.60;;;;;;;23.43;58.95;100366.81;4097706;28;20048;-68
2022/06/25 09:14:53;;;;;;;4.85;1.88;;;;;;;23.55;55.32;100368.09;4131349;28;20524;-69
2022/06/25 09:16:58;;;;;;;5.00;1.40;;;;;;;23.34;56.18;100362.75;4114268;28;20039;-68
2022/06/25 09:19:01;;;;;;;2.67;1.30;;;;;;;23.34;56.74;100365.41;4131192;28;20382;-68
2022/06/25 09:21:08;;;;;;;2.30;1.42;;;;;;;23.44;56.86;100365.91;4116455;28;20047;-67
2022/06/25 09:23:11;;;;;;;3.78;1.67;;;;;;;23.44;57.18;100360.59;4137712;28;20121;-68
2022/06/25 09:25:14;;;;;;;2.50;1.45;;;;;;;23.48;56.19;100367.50;4134553;28;20046;-68
2022/06/25 09:27:20;;;;;;;5.82;1.35;;;;;;;23.62;56.43;100366.94;4129265;28;20046;-68
2022/06/25 09:29:37;;;;;;;2.83;1.50;;;;;;;23.63;57.94;100368.66;4134435;28;20096;-67
2022/06/25 09:31:39;;;;;;;3.28;1.60;;;;;;;23.64;55.85;100373.06;4128512;28;20042;-67
2022/06/25 09:33:42;;;;;;;8.88;2.22;;;;;;;24.03;53.97;100358.16;4132417;28;20038;-67
2022/06/25 09:35:52;;;;;;;5.10;1.80;;;;;;;23.91;54.98;100362.22;4135558;28;20038;-68
2022/06/25 09:38:01;;;;;;;3.92;1.50;;;;;;;23.97;54.55;100353.13;4114126;28;23235;-67
2022/06/25 09:40:05;;;;;;;10.80;2.10;;;;;;;23.96;53.69;100354.06;4116580;28;20046;-67
2022/06/25 09:42:20;;;;;;;4.13;1.60;;;;;;;23.47;55.33;100354.31;4134273;28;20634;-68
2022/06/25 09:44:23;;;;;;;5.05;1.60;;;;;;;23.34;56.75;100360.09;4131388;28;20046;-68
2022/06/25 09:46:32;;;;;;;3.08;1.38;;;;;;;23.60;56.75;100359.97;4116830;28;20051;-66
2022/06/25 09:48:38;;;;;;;4.38;1.90;;;;;;;23.82;57.19;100365.25;4134377;28;20245;-66
2022/06/25 09:50:41;;;;;;;3.45;1.73;;;;;;;24.02;55.54;100367.06;4134297;28;20064;-67
2022/06/25 09:52:53;;;;;;;1.95;1.33;;;;;;;23.75;56.53;100359.31;4132623;28;20517;-67